createdAt,value
2022-09-28T00:00:18.983Z,11.48
2022-09-28T00:05:21.742Z,11.13
2022-09-28T00:10:23.893Z,11.18
2022-09-28T00:15:26.259Z,11.51
2022-09-28T00:20:28.774Z,11.15
2022-09-28T00:25:32.303Z,11.15
2022-09-28T00:30:34.386Z,11.38
2022-09-28T00:35:36.518Z,11.33
2022-09-28T00:40:38.820Z,11.40
2022-09-28T00:45:41.163Z,11.15
2022-09-28T00:50:44.020Z,11.29
2022-09-28T00:55:55.039Z,10.95
2022-09-28T01:00:59.294Z,10.81
2022-09-28T01:06:04.223Z,10.90
2022-09-28T01:11:06.508Z,10.54
2022-09-28T01:16:35.117Z,10.75
2022-09-28T01:22:23.431Z,10.63
2022-09-28T01:27:32.676Z,10.38
2022-09-28T01:32:40.804Z,10.51
2022-09-28T01:37:57.216Z,10.46
2022-09-28T01:43:05.800Z,10.14
2022-09-28T01:48:11.075Z,10.18
2022-09-28T01:53:29.234Z,10.28
2022-09-28T01:59:01.442Z,10.09
2022-09-28T02:04:18.200Z,9.93
2022-09-28T02:09:33.691Z,9.94
2022-09-28T02:14:41.035Z,9.94
2022-09-28T02:19:44.343Z,9.64
2022-09-28T02:24:56.735Z,9.93
2022-09-28T02:30:06.221Z,9.49
2022-09-28T02:35:11.895Z,9.53
2022-09-28T02:40:20.948Z,9.51
2022-09-28T02:45:48.656Z,9.54
2022-09-28T02:51:06.687Z,9.58
2022-09-28T02:56:38.552Z,9.46
2022-09-28T03:02:04.542Z,9.39
2022-09-28T03:07:22.677Z,9.28
2022-09-28T03:12:26.515Z,9.32
2022-09-28T03:17:28.889Z,9.42
2022-09-28T03:22:31.259Z,9.22
2022-09-28T03:27:33.605Z,9.27
2022-09-28T03:32:37.299Z,9.23
2022-09-28T03:37:39.920Z,9.51
2022-09-28T03:42:44.163Z,9.05
2022-09-28T03:47:47.515Z,9.40
2022-09-28T03:52:54.231Z,9.10
2022-09-28T03:58:04.028Z,9.05
2022-09-28T04:03:06.378Z,9.09
2022-09-28T04:08:08.766Z,9.09
2022-09-28T04:13:11.068Z,9.12
2022-09-28T04:18:15.378Z,8.89
2022-09-28T04:23:53.472Z,9.03
2022-09-28T04:29:15.069Z,8.94
2022-09-28T04:34:23.440Z,8.68
2022-09-28T04:39:25.685Z,9.07
2022-09-28T04:44:30.833Z,9.00
2022-09-28T04:49:38.593Z,9.00
2022-09-28T04:54:53.200Z,8.70
2022-09-28T04:59:55.564Z,8.97
2022-09-28T05:04:59.181Z,9.05
2022-09-28T05:10:20.254Z,9.03
2022-09-28T05:15:22.629Z,8.95
2022-09-28T05:20:24.981Z,8.88
2022-09-28T05:25:27.459Z,9.08
2022-09-28T05:30:50.846Z,9.29
2022-09-28T05:36:16.209Z,9.47
2022-09-28T05:41:18.732Z,9.44
2022-09-28T05:46:22.064Z,10.07
2022-09-28T05:51:25.566Z,9.69
2022-09-28T05:56:31.027Z,9.86
2022-09-28T06:01:33.356Z,10.39
2022-09-28T06:06:38.680Z,12.92
2022-09-28T06:11:41.046Z,21.39
2022-09-28T06:17:05.975Z,28.30
2022-09-28T06:22:09.003Z,31.49
2022-09-28T06:27:19.962Z,32.72
2022-09-28T06:32:22.383Z,32.12
2022-09-28T06:37:26.353Z,32.58
2022-09-28T06:42:28.689Z,32.79
2022-09-28T06:48:01.105Z,32.09
2022-09-28T06:53:19.867Z,31.54
2022-09-28T06:58:32.615Z,29.95
2022-09-28T07:03:58.168Z,29.28
2022-09-28T07:09:32.425Z,29.14
2022-09-28T07:14:47.512Z,28.29
2022-09-28T07:19:52.879Z,27.61
2022-09-28T07:24:55.347Z,27.66
2022-09-28T07:30:16.417Z,27.43
2022-09-28T07:35:36.808Z,26.28
2022-09-28T07:40:57.602Z,25.38
2022-09-28T07:46:01.416Z,26.47
2022-09-28T07:51:05.034Z,26.72
2022-09-28T07:56:12.322Z,26.83
2022-09-28T08:01:37.241Z,26.92
2022-09-28T08:06:40.734Z,27.43
2022-09-28T08:11:45.335Z,27.63
2022-09-28T08:16:58.729Z,28.00
2022-09-28T08:22:18.596Z,28.30
2022-09-28T08:27:28.951Z,28.11
2022-09-28T08:32:32.970Z,28.76
2022-09-28T08:37:55.799Z,29.37
2022-09-28T08:43:38.590Z,29.25
2022-09-28T08:49:25.322Z,29.38
2022-09-28T08:54:54.831Z,29.64
2022-09-28T09:00:11.044Z,29.94
2022-09-28T09:05:19.378Z,30.39
2022-09-28T09:11:02.174Z,30.29
2022-09-28T09:16:30.204Z,28.89
2022-09-28T09:22:10.312Z,28.31
2022-09-28T09:28:02.524Z,27.60
2022-09-28T09:33:28.797Z,27.98
2022-09-28T09:38:55.999Z,27.90
2022-09-28T09:44:28.674Z,27.33
2022-09-28T09:50:17.676Z,26.62
2022-09-28T09:55:34.735Z,25.52
2022-09-28T10:01:14.808Z,27.36
2022-09-28T10:06:50.116Z,25.83
2022-09-28T10:11:54.324Z,27.61
2022-09-28T10:16:59.460Z,27.11
2022-09-28T10:22:25.402Z,26.23
2022-09-28T10:27:35.000Z,27.93
2022-09-28T10:32:44.872Z,28.18
2022-09-28T10:38:06.978Z,28.01
2022-09-28T10:43:36.916Z,28.21
2022-09-28T10:48:46.186Z,28.73
2022-09-28T10:54:01.870Z,26.79
2022-09-28T10:59:41.031Z,26.50
2022-09-28T11:05:22.016Z,25.75
2022-09-28T11:10:28.938Z,25.57
2022-09-28T11:15:42.879Z,25.67
2022-09-28T11:20:49.118Z,25.03
2022-09-28T11:26:03.006Z,25.00
2022-09-28T11:31:08.224Z,25.25
2022-09-28T11:36:40.244Z,25.99
2022-09-28T11:42:01.147Z,24.99
2022-09-28T11:47:24.707Z,24.94
2022-09-28T11:52:34.208Z,24.61
2022-09-28T11:57:41.135Z,24.64
2022-09-28T12:02:49.761Z,25.27
2022-09-28T12:07:59.575Z,25.36
2022-09-28T12:13:33.496Z,25.47
2022-09-28T12:18:54.113Z,25.49
2022-09-28T12:24:04.194Z,26.01
2022-09-28T12:29:15.763Z,25.44
2022-09-28T12:34:18.697Z,25.23
2022-09-28T12:39:59.416Z,25.51
2022-09-28T12:45:24.062Z,25.48
2022-09-28T12:51:01.697Z,24.90
2022-09-28T12:56:31.583Z,25.01
2022-09-28T13:01:55.342Z,24.95
2022-09-28T13:07:09.985Z,25.13
2022-09-28T13:12:19.538Z,25.15
2022-09-28T13:17:45.912Z,25.24
2022-09-28T13:23:16.021Z,25.45
2022-09-28T13:28:26.249Z,25.35
2022-09-28T13:33:37.021Z,25.52
2022-09-28T13:38:49.689Z,25.37
2022-09-28T13:44:21.165Z,25.50
2022-09-28T13:49:23.395Z,25.69
2022-09-28T13:54:50.709Z,25.76
2022-09-28T13:59:54.593Z,25.88
2022-09-28T14:04:58.023Z,25.40
2022-09-28T14:10:24.788Z,25.64
2022-09-28T14:15:30.054Z,25.15
2022-09-28T14:20:35.357Z,25.13
2022-09-28T14:26:03.595Z,24.36
2022-09-28T14:31:15.526Z,24.01
2022-09-28T14:37:00.326Z,23.35
2022-09-28T14:42:10.804Z,22.83
2022-09-28T14:47:35.136Z,22.48
2022-09-28T14:52:46.613Z,22.27
2022-09-28T14:57:55.391Z,22.05
2022-09-28T15:03:06.729Z,22.13
2022-09-28T15:08:12.268Z,21.99
2022-09-28T15:13:25.065Z,21.57
2022-09-28T15:18:30.403Z,21.52
2022-09-28T15:23:43.254Z,21.29
2022-09-28T15:28:45.655Z,20.71
2022-09-28T15:34:06.845Z,19.92
2022-09-28T15:39:28.117Z,19.68
2022-09-28T15:44:35.590Z,19.32
2022-09-28T15:49:58.834Z,18.89
2022-09-28T15:55:06.438Z,18.38
2022-09-28T16:00:28.489Z,18.02
2022-09-28T16:05:43.208Z,17.72
2022-09-28T16:11:03.315Z,17.48
2022-09-28T16:16:05.835Z,17.00
2022-09-28T16:21:35.590Z,17.06
2022-09-28T16:26:39.080Z,17.00
2022-09-28T16:31:44.507Z,16.80
2022-09-28T16:36:50.062Z,16.80
2022-09-28T16:42:00.405Z,16.67
2022-09-28T16:47:03.385Z,16.37
2022-09-28T16:52:15.590Z,16.30
2022-09-28T16:57:19.264Z,16.06
2022-09-28T17:07:50.032Z,15.51
2022-09-28T17:13:23.842Z,15.43
2022-09-28T17:18:28.534Z,15.09
2022-09-28T17:28:49.505Z,14.67
2022-09-28T17:33:54.965Z,14.45
2022-09-28T17:39:00.233Z,14.57
2022-09-28T17:44:03.677Z,14.57
2022-09-28T17:54:39.013Z,14.27
2022-09-28T17:59:46.360Z,14.19
2022-09-28T18:04:52.440Z,14.26
2022-09-28T18:15:27.731Z,14.14
2022-09-28T18:20:53.472Z,14.07
2022-09-28T18:25:56.172Z,13.85
2022-09-28T18:31:09.065Z,13.73
2022-09-28T18:36:13.895Z,14.06
2022-09-28T18:41:16.648Z,13.94
2022-09-28T18:46:19.428Z,13.94
2022-09-28T18:51:23.462Z,13.74
2022-09-28T18:56:27.029Z,13.52
2022-09-28T19:01:31.852Z,13.51
2022-09-28T19:06:37.045Z,13.66
2022-09-28T19:11:45.504Z,13.62
2022-09-28T19:16:54.373Z,13.77
2022-09-28T19:22:00.769Z,13.93
2022-09-28T19:27:08.752Z,13.88
2022-09-28T19:32:13.271Z,13.76
2022-09-28T19:37:15.868Z,13.93
2022-09-28T19:42:19.793Z,13.73
2022-09-28T19:47:26.830Z,13.45
2022-09-28T19:52:38.019Z,13.31
2022-09-28T19:57:41.337Z,13.43
2022-09-28T20:02:46.629Z,13.49
2022-09-28T20:07:52.736Z,13.40
2022-09-28T20:12:55.647Z,13.74
2022-09-28T20:17:59.041Z,14.04
2022-09-28T20:23:02.357Z,14.25
2022-09-28T20:28:05.686Z,14.54
2022-09-28T20:33:08.432Z,14.13
2022-09-28T20:38:13.624Z,13.97
2022-09-28T20:43:16.962Z,14.03
2022-09-28T20:48:21.041Z,13.82
2022-09-28T20:53:24.535Z,13.84
2022-09-28T20:58:28.032Z,13.43
2022-09-28T21:03:31.755Z,13.46
2022-09-28T21:08:36.951Z,13.61
2022-09-28T21:13:43.073Z,13.41
2022-09-28T21:18:45.512Z,13.55
2022-09-28T21:23:47.738Z,13.27
2022-09-28T21:28:56.829Z,13.55
2022-09-28T21:34:04.857Z,13.39
2022-09-28T21:39:10.346Z,13.20
2022-09-28T21:44:17.959Z,13.26
2022-09-28T21:49:21.343Z,13.26
2022-09-28T21:54:46.795Z,13.12
2022-09-28T21:59:50.837Z,12.67
2022-09-28T22:04:54.335Z,12.63
2022-09-28T22:09:56.690Z,12.78
2022-09-28T22:14:58.937Z,12.97
2022-09-28T22:20:03.817Z,12.91
2022-09-28T22:25:08.679Z,13.01
2022-09-28T22:30:11.217Z,12.97
2022-09-28T22:35:13.550Z,13.02
2022-09-28T22:40:18.512Z,12.87
2022-09-28T22:45:23.627Z,13.01
2022-09-28T22:50:25.936Z,12.88
2022-09-28T22:55:29.172Z,12.80
2022-09-28T23:00:31.455Z,12.80
2022-09-28T23:05:33.561Z,12.54
2022-09-28T23:10:35.710Z,12.43
2022-09-28T23:15:37.834Z,12.30
2022-09-28T23:20:40.865Z,12.32
2022-09-28T23:25:43.119Z,12.19
2022-09-28T23:30:45.298Z,12.21
2022-09-28T23:35:47.437Z,12.27
2022-09-28T23:40:52.422Z,12.07
2022-09-28T23:45:54.566Z,12.15
2022-09-28T23:50:58.722Z,12.30
2022-09-28T23:56:01.138Z,12.19
